ADDS METAR Data INFO
IDs: Format: Raw Decoded Include TAF

Data at: 0313 UTC 20 Jul 2018

KC62 200255Z AUTO 14005KT 10SM CLR 21/12 A2993 RMK AO2 T02080130
KC62 200235Z AUTO 13005KT 10SM CLR 20/13 A2993 RMK AO2 T02070131
KC62 200215Z AUTO 14005KT 10SM CLR 20/13 A2994 RMK AO2 T02060132
KC62 200155Z AUTO 13004KT 10SM CLR 21/13 A2994 RMK AO2 T02150131
KC62 200135Z AUTO 14004KT 10SM CLR 21/13 A2994 RMK AO2 T02160132
KC62 200115Z AUTO 15004KT 10SM CLR 22/13 A2994 RMK AO2 T02260131
KC62 200055Z AUTO 15004KT 10SM CLR 22/13 A2994 RMK AO2 T02300131
KC62 200035Z AUTO 14004KT 10SM CLR 23/12 A2994 RMK AO2 T02340127
KC62 200015Z AUTO 15004KT 10SM CLR 25/11 A2994 RMK AO2 T02550109
KC62 192355Z AUTO 17006KT 10SM CLR 26/09 A2995 RMK AO2 T02680094
KC62 192335Z AUTO 17007KT 10SM CLR 27/10 A2995 RMK AO2 T02740100
KC62 192315Z AUTO 16005KT 10SM SCT060 27/10 A2996 RMK AO2 T02800107
KC62 192255Z AUTO 14005KT 10SM BKN060 28/09 A2996 RMK AO2 T02840094
KC62 192235Z AUTO 20006KT 10SM SCT060 27/09 A2996 RMK AO2 T02800092
KC62 192215Z AUTO 19009KT 10SM SCT060 28/09 A2997 RMK AO2 T02850095
KC62 192155Z AUTO 18008KT 10SM BKN060 28/09 A2998 RMK AO2 T02830092
KC62 192135Z AUTO 19006KT 10SM OVC060 28/09 A2998 RMK AO2 T02880093
KC62 192115Z AUTO 16005KT 10SM OVC060 27/10 A2999 RMK AO2 T02760103
KC62 192055Z AUTO 17007KT 10SM BKN060 28/09 A2999 RMK AO2 T02840094
KC62 192035Z AUTO 17007KT 10SM BKN060 27/11 A2999 RMK AO2 T02730111
KC62 192015Z AUTO 16009KT 10SM BKN060 28/10 A3000 RMK AO2 T02870101
KC62 191955Z AUTO 16009KT 10SM BKN060 27/10 A3001 RMK AO2 T02740101
KC62 191935Z AUTO 15009KT 10SM SCT060 28/10 A3002 RMK AO2 T02820104
KC62 191915Z AUTO 16007KT 10SM SCT050 27/09 A3002 RMK AO2 T02800093
KC62 191855Z AUTO 16012KT 10SM SCT050 28/10 A3003 RMK AO2 T02840098
KC62 191835Z AUTO 16007G15KT 10SM BKN050 27/10 A3003 RMK AO2 T02760103
KC62 191815Z AUTO 13008KT 10SM BKN050 27/10 A3003 RMK AO2 T02730103
KC62 191755Z AUTO 17008G14KT 10SM BKN050 26/10 A3004 RMK AO2 T02670105
KC62 191735Z AUTO 17009KT 10SM BKN050 26/10 A3004 RMK AO2 T02620097
KC62 191715Z AUTO 14011G14KT 10SM BKN050 26/11 A3005 RMK AO2 T02620110
KC62 191655Z AUTO 16009G15KT 10SM SCT049 SCT055 26/11 A3005 RMK AO2 T02660108
KC62 191635Z AUTO 17010KT 10SM CLR 26/11 A3006 RMK AO2 T02660110
KC62 191615Z AUTO 17009KT 10SM CLR 26/11 A3006 RMK AO2 T02620117
KC62 191555Z AUTO 14009KT 10SM CLR 25/12 A3007 RMK AO2 T02560121
KC62 191535Z AUTO 15009KT 10SM CLR 25/12 A3007 RMK AO2 T02550125
KC62 191515Z AUTO 18008KT 10SM CLR 24/12 A3007 RMK AO2 T02450123
KC62 191455Z AUTO 15008KT 10SM CLR 24/12 A3008 RMK AO2 T02420124
KC62 191435Z AUTO 16008KT 10SM CLR 23/12 A3008 RMK AO2 T02340122
KC62 191415Z AUTO 17008KT 10SM CLR 23/12 A3008 RMK AO2 T02310123
KC62 191355Z AUTO 16007KT 10SM CLR 22/12 A3008 RMK AO2 T02220123
KC62 191335Z AUTO 16007KT 10SM CLR 21/12 A3008 RMK AO2 T02150124
KC62 191315Z AUTO 16008KT 10SM CLR 21/12 A3008 RMK AO2 T02150120
KC62 191255Z AUTO 14005KT 10SM CLR 20/12 A3008 RMK AO2 T02020120
KC62 191235Z AUTO 16007KT 10SM CLR 20/11 A3008 RMK AO2 T01980114
KC62 191215Z AUTO 15005KT 10SM CLR 18/11 A3008 RMK AO2 T01880117
KC62 190935Z AUTO 14004KT 16/12 A3007 RMK AO2 T01640120
KC62 190915Z AUTO 15003KT 10SM CLR 16/12 A3007 RMK AO2 T01650122
KC62 190855Z AUTO 14003KT 10SM CLR 16/12 A3006 RMK AO2 T01670125
KC62 190835Z AUTO 00000KT 10SM CLR 17/12 A3007 RMK AO2 T01700129
KC62 190815Z AUTO 00000KT 10SM SCT060 16/13 A3007 RMK AO2 T01660135
KC62 190755Z AUTO 00000KT 10SM CLR 17/12 A3007 RMK AO2 T01740128
KC62 190735Z AUTO 13003KT 10SM SCT060 17/12 A3007 RMK AO2 T01780128
KC62 190715Z AUTO 14003KT 10SM SCT060 17/12 A3007 RMK AO2 T01760130
KC62 190655Z AUTO 13004KT 10SM BKN060 18/12 A3007 RMK AO2 T01810130
KC62 190635Z AUTO 00000KT 10SM BKN060 18/12 A3007 RMK AO2 T01870127
KC62 190615Z AUTO 00000KT 10SM BKN060 17/13 A3007 RMK AO2 T01760134
KC62 190555Z AUTO 00000KT 10SM BKN060 18/13 A3007 RMK AO2 T01820131
KC62 190535Z AUTO 10003KT 10SM BKN060 18/12 A3007 RMK AO2 T01870129
KC62 190515Z AUTO 09003KT 10SM BKN060 18/12 A3007 RMK AO2 T01880128
KC62 190455Z AUTO 07004KT 10SM BKN060 18/13 A3006 RMK AO2 T01860132
KC62 190435Z AUTO 06004KT 10SM OVC060 17/14 A3007 RMK AO2 T01790145
KC62 190415Z AUTO 00000KT 10SM BKN060 17/14 A3007 RMK AO2 T01790142
KC62 190355Z AUTO 05003KT 10SM SCT060 17/14 A3007 RMK AO2 T01750145
KC62 190335Z AUTO 04003KT 10SM SCT060 17/14 A3007 RMK AO2 T01800146
KC62 190315Z AUTO 00000KT 10SM BKN060 18/15 A3006 RMK AO2 T01800152
KC62 190255Z AUTO 00000KT 10SM SCT060 18/15 A3006 RMK AO2 T01840149
KC62 190235Z AUTO 00000KT 10SM SCT060 18/15 A3006 RMK AO2 T01850150
KC62 190215Z AUTO 00000KT 10SM SCT060 19/15 A3006 RMK AO2 T01920150
KC62 190155Z AUTO 00000KT 10SM SCT070 19/15 A3005 RMK AO2 T01960155
KC62 190135Z AUTO 00000KT 10SM BKN070 20/15 A3005 RMK AO2 T02020154
KC62 190115Z AUTO 00000KT 10SM SCT070 21/16 A3005 RMK AO2 T02120160
KC62 190055Z AUTO 00000KT 10SM CLR 23/12 A3005 RMK AO2 T02330122
KC62 190035Z AUTO 00000KT 10SM CLR 24/11 A3004 RMK AO2 T02460117
KC62 190015Z AUTO 00000KT 10SM CLR 25/09 A3005 RMK AO2 T02550097
KC62 182355Z AUTO 34003KT 10SM CLR 26/08 A3004 RMK AO2 T02610091
KC62 182335Z AUTO 00000KT 10SM CLR 26/07 A3005 RMK AO2 T02650079
KC62 182315Z AUTO 04003KT 10SM CLR 26/07 A3004 RMK AO2 T02650072
KC62 182255Z AUTO 30003KT 10SM CLR 26/07 A3005 RMK AO2 T02680070
KC62 182235Z AUTO 00000KT 10SM CLR 27/06 A3005 RMK AO2 T02710069
KC62 182215Z AUTO 00000KT 10SM CLR 27/07 A3005 RMK AO2 T02700073
KC62 182155Z AUTO 00000KT 10SM CLR 27/07 A3006 RMK AO2 T02690070
KC62 182135Z AUTO 00000KT 10SM CLR 27/07 A3006 RMK AO2 T02700077
KC62 182115Z AUTO 25004KT 10SM CLR 27/07 A3007 RMK AO2 T02700073
KC62 182055Z AUTO 00000KT 10SM CLR 26/08 A3007 RMK AO2 T02620081
KC62 182035Z AUTO 00000KT 10SM CLR 26/08 A3008 RMK AO2 T02600080
KC62 182015Z AUTO 29003KT 10SM CLR 27/08 A3008 RMK AO2 T02730091
KC62 181955Z AUTO 27003KT 10SM SCT055 25/09 A3009 RMK AO2 T02550096
KC62 181935Z AUTO 13005KT 10SM SCT055 25/09 A3009 RMK AO2 T02540095
KC62 181915Z AUTO 00000KT 10SM BKN065 26/07 A3009 RMK AO2 T02640080
KC62 181855Z AUTO 16003KT 10SM SCT050 OVC055 26/09 A3010 RMK AO2 T02660093
KC62 181835Z AUTO 00000KT 10SM SCT049 BKN055 25/08 A3010 RMK AO2 T02570088
KC62 181815Z AUTO 00000KT 10SM SCT047 BKN060 25/09 A3010 RMK AO2 T02570095
KC62 181755Z AUTO 14003KT 10SM CLR 25/10 A3010 RMK AO2 T02570100
KC62 181735Z AUTO 00000KT 10SM SCT044 SCT050 25/10 A3011 RMK AO2 T02520105
KC62 181715Z AUTO 36003KT 10SM SCT050 25/11 A3011 RMK AO2 T02510111
KC62 181655Z AUTO 08005KT 10SM SCT039 25/10 A3011 RMK AO2 T02520107
KC62 181635Z AUTO 00000KT 10SM SCT037 SCT050 25/11 A3012 RMK AO2 T02470113
KC62 181615Z AUTO 00000KT 10SM SCT037 SCT044 SCT050 23/11 A3012 RMK AO2 T02360111
KC62 181555Z AUTO 00000KT 10SM SCT035 SCT045 SCT050 24/12 A3012 RMK AO2 T02440122
KC62 181535Z AUTO 00000KT 10SM CLR 23/12 A3012 RMK AO2 T02360124
KC62 181515Z AUTO 13005KT 10SM CLR 23/12 A3012 RMK AO2 T02330127